»·PEaware :: N8SR KVGT-KAJO

N8SR :: KVGT-KAJO

FLIGHT INFORMATION

Flight Status: Arrived
Operator: Privately registered:
United States
More flights under this callsign
Pilot: Jim C. (23814)
Aircraft: Unknown
(P28U)
More flights by this aircraft type
Origin: KVGT North Las Vegas
United States
Destination: KAJO Corona Mun
United States
More flights between these airports :: More routes between these airports
Route: +NOTWN5 LAS V538 CRESO V21 PDZ
File this flight plan on PilotEdge
Remarks:
Altitude:
(Current/Filed)
11,000ft
Speed:
(Current/Filed)
150kts
Departed: 17-Jan-20 08:22 PM
Arrived: 17-Jan-20 09:51 PM
Distance/Time
Traveled:
182nm/1:28
Distance/Time
To Go:
Arrived

Flight Plot

Page will automatically refresh every two minutes.


Map Options




Map Legend


Flown Route
Filed Route
Departure Airport
Arrival Airport
Navaid (VOR, NDB)
Fix

Horizontal Profiles

Position Reports

Time Latitude Longitude Heading Altitude Ground
Speed
17-Jan-20 19:47 36.208243 -115.197778 177 2208ft 0kts
17-Jan-20 19:48 36.208243 -115.197778 177 2208ft 0kts
17-Jan-20 19:49 36.208243 -115.197778 177 2208ft 0kts
17-Jan-20 19:50 36.208243 -115.197778 177 2208ft 0kts
17-Jan-20 19:51 36.208243 -115.197778 177 2208ft 0kts
17-Jan-20 19:52 36.208243 -115.197778 177 2208ft 0kts
17-Jan-20 19:53 36.208243 -115.197778 177 2208ft 0kts
17-Jan-20 19:54 36.208243 -115.197778 177 2208ft 0kts
17-Jan-20 19:55 36.208243 -115.197778 177 2208ft 0kts
17-Jan-20 19:56 36.208243 -115.197778 177 2208ft 0kts
17-Jan-20 19:57 36.208243 -115.197778 177 2208ft 0kts
17-Jan-20 19:58 36.208243 -115.197778 177 2208ft 0kts
17-Jan-20 19:59 36.208243 -115.197778 177 2208ft 0kts
17-Jan-20 20:00 36.208243 -115.197778 177 2208ft 0kts
17-Jan-20 20:01 36.208243 -115.197778 177 2208ft 0kts
17-Jan-20 20:02 36.208243 -115.197778 177 2208ft 0kts
17-Jan-20 20:03 36.208243 -115.197778 177 2208ft 0kts
17-Jan-20 20:04 36.208243 -115.197778 177 2208ft 0kts
17-Jan-20 20:05 36.208243 -115.197778 177 2208ft 0kts
17-Jan-20 20:06 36.208243 -115.197778 177 2208ft 0kts
17-Jan-20 20:07 36.208243 -115.197778 177 2208ft 0kts
17-Jan-20 20:08 36.208243 -115.197778 177 2208ft 0kts
17-Jan-20 20:10 36.208243 -115.197778 177 2208ft 0kts
17-Jan-20 20:11 36.208243 -115.197778 177 2208ft 0kts
17-Jan-20 20:12 36.208243 -115.197778 177 2208ft 0kts
17-Jan-20 20:13 36.208243 -115.197778 177 2208ft 0kts
17-Jan-20 20:14 36.208243 -115.197778 177 2208ft 0kts
17-Jan-20 20:15 36.208243 -115.197778 177 2208ft 0kts
17-Jan-20 20:16 36.208438 -115.196611 317 2208ft 10kts
17-Jan-20 20:17 36.210474 -115.199203 314 2208ft 15kts
17-Jan-20 20:18 36.212665 -115.201448 278 2208ft 0kts
17-Jan-20 20:19 36.212630 -115.202783 264 2208ft 12kts
17-Jan-20 20:20 36.214146 -115.203214 40 2208ft 1kts
17-Jan-20 20:21 36.214528 -115.202475 129 2208ft 1kts
17-Jan-20 20:22 36.204895 -115.189810 133 2563ft 87kts
17-Jan-20 20:23 36.190709 -115.196990 266 3649ft 96kts
17-Jan-20 20:24 36.189742 -115.231107 272 4711ft 100kts
17-Jan-20 20:25 36.206926 -115.256582 315 5967ft 99kts
17-Jan-20 20:26 36.229327 -115.280116 315 7002ft 112kts
17-Jan-20 20:27 36.254128 -115.281702 93 7639ft 129kts
17-Jan-20 20:28 36.228505 -115.252206 150 8310ft 128kts
17-Jan-20 20:29 36.197743 -115.230692 149 9004ft 127kts
17-Jan-20 20:29 36.171078 -115.215182 157 9585ft 127kts
17-Jan-20 20:31 36.132429 -115.191765 149 9983ft 145kts
17-Jan-20 20:32 36.095400 -115.168905 154 9981ft 150kts
17-Jan-20 20:32 36.061873 -115.160350 179 9981ft 149kts
17-Jan-20 20:33 36.020461 -115.160936 180 9981ft 149kts
17-Jan-20 20:35 35.972370 -115.161804 180 9981ft 147kts
17-Jan-20 20:35 35.938402 -115.162415 180 9981ft 146kts
17-Jan-20 20:36 35.897681 -115.163146 180 9981ft 146kts
17-Jan-20 20:38 35.848464 -115.164026 180 9981ft 154kts
17-Jan-20 20:38 35.812650 -115.164664 180 9981ft 155kts
17-Jan-20 20:39 35.771119 -115.172589 216 9979ft 154kts
17-Jan-20 20:40 35.740983 -115.210298 227 9981ft 155kts
17-Jan-20 20:41 35.712034 -115.249588 227 9981ft 155kts
17-Jan-20 20:42 35.683059 -115.288885 227 9981ft 155kts
17-Jan-20 20:43 35.654089 -115.328009 227 9981ft 155kts
17-Jan-20 20:44 35.625157 -115.367014 227 9999ft 154kts
17-Jan-20 20:45 35.596118 -115.406042 227 9999ft 155kts
17-Jan-20 20:46 35.567030 -115.445272 227 10000ft 155kts
17-Jan-20 20:47 35.538032 -115.484280 227 10000ft 155kts
17-Jan-20 20:48 35.508974 -115.523299 227 10000ft 155kts
17-Jan-20 20:49 35.479791 -115.562421 227 10000ft 155kts
17-Jan-20 20:50 35.450751 -115.601336 227 10000ft 155kts
17-Jan-20 20:51 35.421570 -115.640370 227 10000ft 155kts
17-Jan-20 20:52 35.392464 -115.679244 227 10000ft 155kts
17-Jan-20 20:53 35.363251 -115.718215 227 9999ft 153kts
17-Jan-20 20:54 35.334584 -115.756404 227 9999ft 152kts
17-Jan-20 20:55 35.305901 -115.794581 227 10000ft 152kts
17-Jan-20 20:56 35.277302 -115.832531 227 10000ft 152kts
17-Jan-20 20:57 35.248658 -115.870541 227 10000ft 152kts
17-Jan-20 20:58 35.220010 -115.908540 227 10000ft 152kts
17-Jan-20 20:59 35.191283 -115.946606 227 10000ft 152kts
17-Jan-20 21:00 35.162571 -115.984611 227 10000ft 152kts
17-Jan-20 21:01 35.133885 -116.022539 227 10000ft 152kts
17-Jan-20 21:02 35.105164 -116.060471 227 10000ft 152kts
17-Jan-20 21:03 35.076454 -116.098346 227 10000ft 152kts
17-Jan-20 21:04 35.047733 -116.136194 227 10000ft 152kts
17-Jan-20 21:05 35.018985 -116.174035 227 10000ft 152kts
17-Jan-20 21:06 34.990224 -116.211851 227 10000ft 152kts
17-Jan-20 21:07 34.961552 -116.249509 227 10000ft 152kts
17-Jan-20 21:08 34.932692 -116.287369 227 10000ft 152kts
17-Jan-20 21:09 34.903916 -116.325080 227 10000ft 152kts
17-Jan-20 21:10 34.875107 -116.362790 227 10000ft 152kts
17-Jan-20 21:11 34.846217 -116.400564 227 10000ft 152kts
17-Jan-20 21:12 34.817413 -116.438189 227 10000ft 152kts
17-Jan-20 21:13 34.788276 -116.475472 225 10000ft 152kts
17-Jan-20 21:14 34.758665 -116.512062 225 10000ft 152kts
17-Jan-20 21:15 34.728891 -116.548768 225 10000ft 152kts
17-Jan-20 21:16 34.699220 -116.585300 225 10000ft 152kts
17-Jan-20 21:17 34.669477 -116.621875 225 10000ft 152kts
17-Jan-20 21:18 34.639769 -116.658376 225 10000ft 152kts
17-Jan-20 21:19 34.610014 -116.694892 225 10000ft 152kts
17-Jan-20 21:20 34.580121 -116.731538 225 9933ft 155kts
17-Jan-20 21:21 34.550114 -116.768284 225 9908ft 152kts
17-Jan-20 21:22 34.520330 -116.804714 225 9908ft 152kts
17-Jan-20 21:23 34.490442 -116.841234 225 9908ft 152kts
17-Jan-20 21:24 34.460671 -116.877571 225 9908ft 152kts
17-Jan-20 21:25 34.430902 -116.913868 225 9908ft 152kts
17-Jan-20 21:26 34.401008 -116.950277 225 9908ft 152kts
17-Jan-20 21:27 34.371345 -116.986889 225 9908ft 152kts
17-Jan-20 21:28 34.342378 -117.024019 227 9908ft 152kts
17-Jan-20 21:29 34.313832 -117.062038 228 9908ft 152kts
17-Jan-20 21:30 34.286001 -117.100568 229 9908ft 152kts
17-Jan-20 21:31 34.258802 -117.139722 230 9908ft 152kts
17-Jan-20 21:32 34.228930 -117.175414 214 9903ft 152kts
17-Jan-20 21:33 34.194996 -117.210870 226 9207ft 165kts
17-Jan-20 21:34 34.162308 -117.249904 224 8507ft 165kts
17-Jan-20 21:35 34.128732 -117.288911 224 7525ft 169kts
17-Jan-20 21:36 34.095997 -117.326892 223 6518ft 144kts
17-Jan-20 21:37 34.068893 -117.358245 224 5512ft 131kts
17-Jan-20 21:38 34.042144 -117.387884 221 4510ft 130kts
17-Jan-20 21:39 34.015736 -117.417729 223 3508ft 130kts
17-Jan-20 21:40 33.991305 -117.445913 223 3004ft 103kts
17-Jan-20 21:41 33.968589 -117.472123 223 3005ft 114kts
17-Jan-20 21:42 33.947132 -117.496834 223 3009ft 107kts
17-Jan-20 21:43 33.925401 -117.521898 223 3008ft 108kts
17-Jan-20 21:44 33.928982 -117.546811 5 3003ft 108kts
17-Jan-20 21:45 33.937673 -117.516063 90 3008ft 108kts
17-Jan-20 21:46 33.926407 -117.488119 187 3002ft 109kts
17-Jan-20 21:47 33.918386 -117.519466 272 2936ft 115kts
17-Jan-20 21:48 33.908251 -117.557594 249 2194ft 125kts
17-Jan-20 21:49 33.898031 -117.586970 265 816ft 84kts
17-Jan-20 21:50 33.897484 -117.605191 208 536ft 0kts
17-Jan-20 21:51 33.897246 -117.602133 77 536ft 11kts
17-Jan-20 21:52 33.896938 -117.601223 186 536ft 0kts
17-Jan-20 21:53 33.896938 -117.601223 186 536ft 0kts
17-Jan-20 21:54 33.896938 -117.601223 186 536ft 0kts

Navigation Log

Ident Type
Flight plan parsing failed, navigation log unavailable